Nashville, Tennessee
Traffic Map
Current Weather Conditions
Nashville, Tennessee
Overcast
Overcast
64°
Feels Like: 64°
Wind Chill: 64° Ceiling: 1700
Heat Index: 64° Visibility: 10mi
Dew Point: 58° Wind: 14mph
Humidity: 80% Direction: 190° (S)
Pressure: 29.94in Gusts: 0mph
Raw Report DataKBNA 032153Z 19012KT 10SM BKN017 OVC043 18/14 A2994 RMK AO2 SLP138 T01780144
Traffic Incident Summary
Active as of:
Severity:
Category:
InformationThere was an issue retrieving the traffic information for this location. Please try a different location or try again shortly.
Advertisements
Track Severe Weather on mobile